Time;durP1;ratioP1;P1;durP2;ratioP2;P2;SDS_P1;SDS_P2;PMS_P1;PMS_P2;Temp;Humidity;BMP_temperature;BMP_pressure;BME280_temperature;BME280_humidity;BME280_pressure;Samples;Min_cycle;Max_cycle;Signal;HPM_P1;HPM_P2
2021/11/20 00:00:52;;;;;;;18.80;12.45;;;8.90;99.90;;;;;;5052481;28;20314;-73
2021/11/20 00:03:20;;;;;;;15.73;11.40;;;8.90;99.90;;;;;;5053264;28;20199;-72
2021/11/20 00:05:51;;;;;;;14.10;11.43;;;9.00;99.90;;;;;;5053128;28;20235;-72
2021/11/20 00:08:18;;;;;;;15.18;10.95;;;9.00;99.90;;;;;;5052999;28;20227;-71
2021/11/20 00:10:48;;;;;;;17.35;12.30;;;9.00;99.90;;;;;;5052922;28;20227;-71
2021/11/20 00:13:16;;;;;;;14.45;10.32;;;9.00;99.90;;;;;;5052840;28;20844;-71
2021/11/20 00:16:00;;;;;;;13.57;10.05;;;9.10;99.90;;;;;;5052898;28;20630;-71
2021/11/20 00:18:31;;;;;;;13.98;10.75;;;9.20;99.90;;;;;;5053605;28;20314;-72
2021/11/20 00:21:01;;;;;;;14.70;11.07;;;9.10;99.90;;;;;;5052924;28;20334;-72
2021/11/20 00:23:32;;;;;;;13.57;10.60;;;9.00;99.90;;;;;;5052887;28;20203;-73
2021/11/20 00:26:00;;;;;;;14.68;10.80;;;8.90;99.90;;;;;;5052941;28;20640;-71
2021/11/20 00:28:39;;;;;;;16.13;11.85;;;8.90;99.90;;;;;;5052754;28;20251;-72
2021/11/20 00:31:07;;;;;;;17.52;11.75;;;8.90;99.90;;;;;;5052808;28;20200;-74
2021/11/20 00:33:36;;;;;;;14.63;11.73;;;8.70;99.90;;;;;;5052619;28;20203;-73
2021/11/20 00:36:04;;;;;;;15.40;10.93;;;8.80;99.90;;;;;;5052991;28;20207;-73
2021/11/20 00:38:32;;;;;;;14.63;10.70;;;8.90;99.90;;;;;;5052794;28;20254;-73
2021/11/20 00:41:01;;;;;;;15.63;11.43;;;8.90;99.90;;;;;;5052782;28;20348;-74
2021/11/20 00:43:29;;;;;;;16.45;12.20;;;8.80;99.90;;;;;;5052950;28;20669;-74
2021/11/20 00:45:56;;;;;;;16.13;11.20;;;8.80;99.90;;;;;;5053482;28;20223;-72
2021/11/20 00:48:25;;;;;;;15.75;11.30;;;8.90;99.90;;;;;;5054885;28;20255;-73
2021/11/20 00:50:56;;;;;;;18.00;11.63;;;8.90;99.90;;;;;;5055314;28;20234;-73
2021/11/20 00:53:24;;;;;;;16.55;12.20;;;8.90;99.90;;;;;;5055244;28;20235;-72
2021/11/20 00:55:51;;;;;;;15.80;11.18;;;8.90;99.90;;;;;;5055191;28;20238;-72
2021/11/20 00:58:19;;;;;;;15.77;11.07;;;9.00;99.90;;;;;;5055137;28;20255;-72
2021/11/20 01:00:48;;;;;;;16.77;11.52;;;9.00;99.90;;;;;;5054813;28;20306;-73
2021/11/20 01:03:16;;;;;;;15.40;11.25;;;9.10;99.90;;;;;;5054950;28;20263;-73
2021/11/20 01:05:43;;;;;;;16.35;11.35;;;9.20;99.90;;;;;;5054968;28;20271;-73
2021/11/20 01:08:15;;;;;;;14.15;10.65;;;9.10;99.90;;;;;;5053381;28;20262;-72
2021/11/20 01:10:45;;;;;;;16.27;11.48;;;9.00;99.90;;;;;;5052443;28;20255;-73
2021/11/20 01:13:12;;;;;;;16.60;12.30;;;9.00;99.90;;;;;;5053793;28;20241;-73
2021/11/20 01:15:41;;;;;;;18.52;12.10;;;9.10;99.90;;;;;;5053781;28;20243;-73
2021/11/20 01:18:10;;;;;;;15.98;12.32;;;9.10;99.90;;;;;;5054158;28;20314;-73
2021/11/20 01:20:37;;;;;;;15.93;11.80;;;9.00;99.90;;;;;;5053695;28;20259;-71
2021/11/20 01:23:05;;;;;;;14.02;11.05;;;8.90;99.90;;;;;;5054740;28;20306;-73
2021/11/20 01:25:35;;;;;;;15.75;11.63;;;8.90;99.90;;;;;;5055026;28;20740;-73
2021/11/20 01:28:03;;;;;;;15.38;11.07;;;9.00;99.90;;;;;;5053749;28;20591;-74
2021/11/20 01:30:30;;;;;;;16.27;11.75;;;9.00;99.90;;;;;;5055537;28;20295;-74
2021/11/20 01:32:58;;;;;;;18.75;13.40;;;9.00;99.90;;;;;;5053555;28;20199;-72
2021/11/20 01:35:26;;;;;;;16.98;12.15;;;8.90;99.90;;;;;;5053508;28;20286;-73
2021/11/20 01:37:54;;;;;;;16.13;11.45;;;8.70;99.90;;;;;;5053305;28;20230;-73
2021/11/20 01:40:24;;;;;;;20.35;13.32;;;8.90;99.90;;;;;;5053077;28;20334;-73
2021/11/20 01:42:53;;;;;;;15.40;11.20;;;8.90;99.90;;;;;;5053335;28;20234;-72
2021/11/20 01:45:23;;;;;;;14.35;10.95;;;8.90;99.90;;;;;;5053257;28;20227;-72
2021/11/20 01:47:53;;;;;;;15.40;11.07;;;8.90;99.90;;;;;;5053254;28;20234;-72
2021/11/20 01:50:24;;;;;;;14.02;10.93;;;8.90;99.90;;;;;;5052532;28;20242;-70
2021/11/20 01:53:02;;;;;;;15.32;11.05;;;9.00;99.90;;;;;;5052769;28;20242;-72
2021/11/20 01:55:34;;;;;;;14.52;9.77;;;8.90;99.90;;;;;;5053068;28;20257;-72
2021/11/20 01:58:08;;;;;;;13.80;10.57;;;8.90;99.90;;;;;;5053133;28;20227;-72
2021/11/20 02:00:40;;;;;;;16.20;11.65;;;8.90;99.90;;;;;;5052749;28;20306;-71
2021/11/20 02:03:14;;;;;;;17.75;11.05;;;8.90;99.90;;;;;;5052936;28;20290;-72
2021/11/20 02:05:51;;;;;;;15.52;10.95;;;9.10;99.90;;;;;;5052678;28;20224;-73
2021/11/20 02:08:26;;;;;;;13.10;10.30;;;9.10;99.90;;;;;;5053595;28;20226;-75
2021/11/20 02:10:56;;;;;;;15.50;11.07;;;9.20;99.90;;;;;;5053200;28;20644;-74
2021/11/20 02:13:27;;;;;;;13.70;10.88;;;9.10;99.90;;;;;;5052504;28;20239;-74
2021/11/20 02:15:59;;;;;;;17.17;11.43;;;8.80;99.90;;;;;;5051942;28;20539;-74
2021/11/20 02:18:29;;;;;;;21.60;11.82;;;8.70;99.90;;;;;;5052671;28;20596;-73
2021/11/20 02:21:01;;;;;;;15.95;11.57;;;8.70;99.90;;;;;;5051614;28;20242;-73
2021/11/20 02:23:27;;;;;;;13.90;10.40;;;8.70;99.90;;;;;;5052084;28;20257;-74
2021/11/20 02:25:54;;;;;;;15.32;11.10;;;8.60;99.90;;;;;;5055661;28;20286;-74
2021/11/20 02:28:22;;;;;;;17.90;11.85;;;8.50;99.90;;;;;;5055232;28;20772;-73
2021/11/20 02:30:52;;;;;;;17.77;12.43;;;8.50;99.90;;;;;;5055070;28;20674;-73
2021/11/20 02:33:22;;;;;;;18.65;13.40;;;8.60;99.90;;;;;;5055468;28;20214;-73
2021/11/20 02:35:51;;;;;;;17.02;12.77;;;8.70;99.90;;;;;;5057018;28;20215;-72
2021/11/20 02:38:20;;;;;;;19.35;13.90;;;8.70;99.90;;;;;;5056608;28;20318;-73
2021/11/20 02:40:47;;;;;;;19.63;13.75;;;8.60;99.90;;;;;;5055161;28;20215;-73
2021/11/20 02:43:15;;;;;;;20.92;15.25;;;8.50;99.90;;;;;;5055980;28;20298;-74
2021/11/20 02:45:45;;;;;;;22.55;15.95;;;8.30;99.90;;;;;;5055100;28;20235;-72
2021/11/20 02:48:14;;;;;;;20.67;14.75;;;8.20;99.90;;;;;;5055414;28;20656;-74
2021/11/20 02:50:44;;;;;;;21.05;14.55;;;8.10;99.90;;;;;;5055525;28;20629;-73
2021/11/20 02:53:15;;;;;;;20.75;14.23;;;8.30;99.90;;;;;;5055548;28;20247;-73
2021/11/20 02:55:43;;;;;;;20.67;14.80;;;8.40;99.90;;;;;;5055378;28;20673;-74
2021/11/20 02:58:10;;;;;;;20.85;13.65;;;8.30;99.90;;;;;;5055493;28;20621;-74
2021/11/20 03:00:38;;;;;;;19.77;13.10;;;8.30;99.90;;;;;;5055372;28;20306;-72
2021/11/20 03:03:05;;;;;;;20.15;13.70;;;8.40;99.90;;;;;;5055794;28;20241;-72
2021/11/20 03:05:33;;;;;;;21.02;14.45;;;8.50;99.90;;;;;;5055565;28;20231;-74
2021/11/20 03:08:00;;;;;;;18.35;13.43;;;8.40;99.90;;;;;;5054940;28;20314;-74
2021/11/20 03:10:27;;;;;;;19.10;13.75;;;8.30;99.90;;;;;;5055570;28;20227;-74
2021/11/20 03:12:54;;;;;;;17.80;12.30;;;8.40;99.90;;;;;;5055453;28;20239;-73
2021/11/20 03:15:21;;;;;;;17.88;13.45;;;8.60;99.90;;;;;;5055305;28;20286;-73
2021/11/20 03:17:48;;;;;;;17.60;12.50;;;8.60;99.90;;;;;;5055231;28;20322;-71
2021/11/20 03:20:17;;;;;;;18.63;13.10;;;8.60;99.90;;;;;;5055511;28;20640;-72
2021/11/20 03:22:48;;;;;;;21.52;13.48;;;8.80;99.90;;;;;;5055803;28;20238;-72
2021/11/20 03:25:15;;;;;;;20.92;13.65;;;8.80;99.90;;;;;;5055357;28;20231;-71
2021/11/20 03:27:42;;;;;;;19.58;14.90;;;8.80;99.90;;;;;;5055657;28;20239;-72
2021/11/20 03:30:11;;;;;;;19.50;13.25;;;8.80;99.90;;;;;;5055651;28;20211;-72
2021/11/20 03:32:38;;;;;;;19.77;13.82;;;8.60;99.90;;;;;;5055833;28;20203;-72
2021/11/20 03:35:06;;;;;;;20.58;14.70;;;8.50;99.90;;;;;;5055408;28;20235;-71
2021/11/20 03:37:33;;;;;;;19.77;14.00;;;8.40;99.90;;;;;;5055477;28;20246;-71
2021/11/20 03:40:02;;;;;;;19.30;13.10;;;8.40;99.90;;;;;;5054926;28;20217;-73
2021/11/20 03:42:29;;;;;;;19.15;13.23;;;8.40;99.90;;;;;;5055156;28;20296;-72
2021/11/20 03:44:55;;;;;;;17.75;13.63;;;8.30;99.90;;;;;;5054235;28;20287;-74
2021/11/20 03:47:22;;;;;;;21.38;14.80;;;8.20;99.90;;;;;;5055108;28;20237;-71
2021/11/20 03:49:50;;;;;;;22.25;15.25;;;8.20;99.90;;;;;;5055140;28;20294;-71
2021/11/20 03:52:17;;;;;;;19.08;14.00;;;8.20;99.90;;;;;;5055704;28;20614;-71
2021/11/20 03:54:46;;;;;;;19.85;13.75;;;8.10;99.90;;;;;;5055056;28;20290;-71
2021/11/20 03:57:15;;;;;;;21.55;13.85;;;8.30;99.90;;;;;;5055407;28;20239;-73
2021/11/20 03:59:42;;;;;;;19.35;13.45;;;8.30;99.90;;;;;;5055681;28;20306;-73
2021/11/20 04:02:08;;;;;;;19.92;13.70;;;8.20;99.90;;;;;;5055241;28;20313;-73
2021/11/20 04:04:36;;;;;;;21.83;14.18;;;8.20;99.90;;;;;;5055364;28;20286;-73
2021/11/20 04:07:03;;;;;;;19.73;13.32;;;8.30;99.90;;;;;;5055327;28;20239;-73
2021/11/20 04:09:30;;;;;;;18.40;12.55;;;8.20;99.90;;;;;;5055475;28;20228;-72
2021/11/20 04:11:57;;;;;;;19.85;13.30;;;8.30;99.90;;;;;;5055285;28;20227;-72
2021/11/20 04:14:27;;;;;;;17.83;13.13;;;8.40;99.90;;;;;;5054798;28;20637;-71
2021/11/20 04:16:54;;;;;;;21.80;13.70;;;8.40;99.90;;;;;;5055028;28;20302;-72
2021/11/20 04:19:22;;;;;;;20.50;14.18;;;8.40;99.90;;;;;;5055656;28;20219;-72
2021/11/20 04:21:50;;;;;;;20.15;13.55;;;8.30;99.90;;;;;;5054514;28;20243;-72
2021/11/20 04:24:19;;;;;;;19.42;14.27;;;8.10;99.90;;;;;;5054755;28;20207;-73
2021/11/20 04:26:46;;;;;;;18.35;12.88;;;8.10;99.90;;;;;;5055030;28;20271;-72
2021/11/20 04:29:13;;;;;;;19.70;13.15;;;8.10;99.90;;;;;;5054692;28;20255;-73
2021/11/20 04:31:41;;;;;;;19.95;13.35;;;8.10;99.90;;;;;;5054621;28;20242;-73
2021/11/20 04:34:09;;;;;;;20.05;14.10;;;8.00;99.90;;;;;;5054680;28;20620;-71
2021/11/20 04:36:35;;;;;;;17.95;13.18;;;8.00;99.90;;;;;;5054485;28;20207;-72
2021/11/20 04:39:05;;;;;;;19.77;14.10;;;8.00;99.90;;;;;;5054536;28;20306;-72
2021/11/20 04:41:32;;;;;;;19.35;13.35;;;8.00;99.90;;;;;;5054411;28;20255;-72
2021/11/20 04:43:59;;;;;;;20.25;13.23;;;8.00;99.90;;;;;;5054707;28;20746;-73
2021/11/20 04:46:27;;;;;;;18.90;13.65;;;8.20;99.90;;;;;;5054284;28;20234;-73
2021/11/20 04:48:55;;;;;;;17.30;12.80;;;8.40;99.90;;;;;;5054983;28;20259;-73
2021/11/20 04:51:24;;;;;;;19.75;13.70;;;8.40;99.90;;;;;;5054447;28;20598;-72
2021/11/20 04:53:52;;;;;;;19.02;13.68;;;8.30;99.90;;;;;;5054281;28;20633;-72
2021/11/20 04:56:22;;;;;;;19.02;13.35;;;8.20;99.90;;;;;;5053398;28;20239;-72
2021/11/20 04:58:50;;;;;;;21.27;14.50;;;8.10;99.90;;;;;;5053875;28;20619;-72
2021/11/20 05:01:18;;;;;;;21.83;13.98;;;8.00;99.90;;;;;;5054345;28;20230;-72
2021/11/20 05:03:46;;;;;;;21.20;14.82;;;8.10;99.90;;;;;;5054538;28;20203;-72
2021/11/20 05:06:16;;;;;;;20.90;14.68;;;8.20;99.90;;;;;;5053222;28;20235;-72
2021/11/20 05:08:43;;;;;;;21.42;14.05;;;8.10;99.90;;;;;;5053482;28;20661;-72
2021/11/20 05:11:11;;;;;;;20.13;13.82;;;8.00;99.90;;;;;;5054070;28;20231;-72
2021/11/20 05:13:38;;;;;;;19.92;12.65;;;8.20;99.90;;;;;;5054197;28;20269;-73
2021/11/20 05:16:06;;;;;;;20.33;13.23;;;8.40;99.90;;;;;;5053670;28;20247;-72
2021/11/20 05:18:33;;;;;;;19.42;13.30;;;8.50;99.90;;;;;;5053634;28;20219;-72
2021/11/20 05:21:01;;;;;;;20.42;13.57;;;8.70;99.90;;;;;;5053371;28;20769;-72
2021/11/20 05:23:31;;;;;;;19.58;13.60;;;8.80;99.90;;;;;;5053866;28;20592;-72
2021/11/20 05:25:59;;;;;;;20.95;14.70;;;8.70;99.90;;;;;;5053577;28;20294;-72
2021/11/20 05:28:26;;;;;;;22.00;13.68;;;8.60;99.90;;;;;;5053590;28;20776;-72
2021/11/20 05:30:54;;;;;;;22.10;14.82;;;8.40;99.90;;;;;;5053733;28;20712;-72
2021/11/20 05:33:25;;;;;;;16.02;12.38;;;8.30;99.90;;;;;;5053973;28;20260;-72
2021/11/20 05:35:52;;;;;;;18.83;13.50;;;8.20;99.90;;;;;;5053322;28;20672;-71
2021/11/20 05:38:19;;;;;;;20.60;13.43;;;8.20;99.90;;;;;;5053417;28;20652;-72
2021/11/20 05:40:48;;;;;;;21.15;13.73;;;8.10;99.90;;;;;;5053462;28;20199;-72
2021/11/20 05:43:17;;;;;;;22.05;14.23;;;8.00;99.90;;;;;;5053366;28;20294;-71
2021/11/20 05:45:49;;;;;;;20.63;13.68;;;7.90;99.90;;;;;;5053313;28;20621;-72
2021/11/20 05:48:16;;;;;;;17.35;12.90;;;8.00;99.90;;;;;;5053438;28;20262;-72
2021/11/20 05:50:44;;;;;;;16.52;12.57;;;8.10;99.90;;;;;;5053425;28;20620;-72
2021/11/20 05:53:13;;;;;;;17.88;12.32;;;8.20;99.90;;;;;;5053704;28;20230;-72
2021/11/20 05:55:41;;;;;;;20.40;13.43;;;8.30;99.90;;;;;;5053708;28;20290;-72
2021/11/20 05:58:10;;;;;;;19.13;13.18;;;8.30;99.90;;;;;;5054163;28;20310;-72
2021/11/20 06:00:40;;;;;;;19.58;13.95;;;8.40;99.90;;;;;;5057756;28;20295;-72
2021/11/20 06:03:09;;;;;;;19.98;14.45;;;8.40;99.90;;;;;;5058090;28;20235;-71
2021/11/20 06:05:37;;;;;;;21.73;13.98;;;8.30;99.90;;;;;;5056615;28;20200;-71
2021/11/20 06:08:06;;;;;;;18.25;12.32;;;8.20;99.90;;;;;;5057495;28;20314;-72
2021/11/20 06:10:34;;;;;;;19.20;13.10;;;8.30;99.90;;;;;;5058093;28;20204;-73
2021/11/20 06:13:00;;;;;;;19.02;13.77;;;8.30;99.90;;;;;;5057382;28;20286;-72
2021/11/20 06:15:29;;;;;;;20.25;13.98;;;8.40;99.90;;;;;;5056891;28;20230;-73
2021/11/20 06:17:56;;;;;;;19.77;14.18;;;8.20;99.90;;;;;;5056821;28;20309;-71
2021/11/20 06:20:23;;;;;;;18.80;12.82;;;8.10;99.90;;;;;;5057122;28;20294;-72
2021/11/20 06:22:50;;;;;;;17.48;12.98;;;8.00;99.90;;;;;;5056734;28;20645;-71
2021/11/20 06:25:17;;;;;;;19.90;13.75;;;7.90;99.90;;;;;;5056620;28;20294;-72
2021/11/20 06:27:44;;;;;;;20.88;12.93;;;7.90;99.90;;;;;;5056450;28;20242;-72
2021/11/20 06:30:14;;;;;;;21.88;13.40;;;7.90;99.90;;;;;;5056864;28;20253;-72
2021/11/20 06:32:43;;;;;;;21.92;14.25;;;8.00;99.90;;;;;;5056642;28;20200;-72
2021/11/20 06:35:16;;;;;;;20.92;13.52;;;7.90;99.90;;;;;;5056300;28;20294;-72
2021/11/20 06:37:44;;;;;;;20.95;12.77;;;8.00;99.90;;;;;;5056737;28;20207;-73
2021/11/20 06:40:15;;;;;;;20.17;13.00;;;8.10;99.90;;;;;;5057313;28;20233;-73
2021/11/20 06:42:43;;;;;;;19.30;14.18;;;8.30;99.90;;;;;;5056367;28;20307;-72
2021/11/20 06:45:14;;;;;;;16.90;12.90;;;8.20;99.90;;;;;;5056491;28;20258;-72
2021/11/20 06:47:42;;;;;;;18.48;13.00;;;8.40;99.90;;;;;;5056413;28;20258;-72
2021/11/20 06:50:10;;;;;;;18.60;13.13;;;8.50;99.90;;;;;;5056255;28;20291;-72
2021/11/20 06:52:37;;;;;;;18.08;12.82;;;8.50;99.90;;;;;;5056311;28;20200;-72
2021/11/20 06:55:06;;;;;;;20.02;12.50;;;8.50;99.90;;;;;;5055762;28;20238;-72
2021/11/20 06:57:53;;;;;;;15.25;11.43;;;8.70;99.90;;;;;;5055842;28;20302;-71
2021/11/20 07:00:29;;;;;;;18.08;12.10;;;8.80;99.90;;;;;;5056269;28;20193;-72
2021/11/20 07:03:01;;;;;;;18.80;12.90;;;8.70;99.90;;;;;;5056258;28;20313;-71
2021/11/20 07:05:30;;;;;;;16.92;11.65;;;8.60;99.90;;;;;;5055711;28;20723;-71
2021/11/20 07:07:58;;;;;;;19.70;12.15;;;8.50;99.90;;;;;;5055941;28;20310;-72
2021/11/20 07:10:26;;;;;;;18.55;12.05;;;8.40;99.90;;;;;;5055465;28;20254;-72
2021/11/20 07:12:55;;;;;;;16.92;12.63;;;8.20;99.90;;;;;;5055783;28;20290;-72
2021/11/20 07:15:23;;;;;;;19.88;13.05;;;8.20;99.90;;;;;;5055532;28;20290;-72
2021/11/20 07:17:50;;;;;;;17.45;11.70;;;8.30;99.90;;;;;;5055509;28;20313;-72
2021/11/20 07:20:21;;;;;;;18.13;11.50;;;8.40;99.90;;;;;;5055623;28;20562;-72
2021/11/20 07:22:49;;;;;;;16.63;11.80;;;8.50;99.90;;;;;;5055290;28;20745;-72
2021/11/20 07:25:17;;;;;;;17.40;12.60;;;8.60;99.90;;;;;;5055149;28;20239;-72
2021/11/20 07:27:44;;;;;;;18.73;12.88;;;8.50;99.90;;;;;;5055206;28;20290;-72
2021/11/20 07:30:15;;;;;;;19.50;12.32;;;8.50;99.90;;;;;;5055500;28;20238;-71
2021/11/20 07:32:43;;;;;;;19.05;12.90;;;8.40;99.90;;;;;;5055428;28;20295;-72
2021/11/20 07:35:11;;;;;;;17.08;12.55;;;8.40;99.90;;;;;;5055026;28;20704;-72
2021/11/20 07:37:39;;;;;;;20.48;13.27;;;8.40;99.90;;;;;;5055250;28;20261;-71
2021/11/20 07:40:09;;;;;;;19.73;13.50;;;8.50;99.90;;;;;;5055414;28;20247;-72
2021/11/20 07:42:36;;;;;;;22.38;13.85;;;8.50;99.90;;;;;;5055044;28;20634;-72
2021/11/20 07:45:04;;;;;;;18.27;12.90;;;8.50;99.90;;;;;;5054962;28;20207;-72
2021/11/20 07:47:31;;;;;;;20.63;13.07;;;8.50;99.90;;;;;;5054727;28;20297;-72
2021/11/20 07:49:58;;;;;;;19.05;13.30;;;8.60;99.90;;;;;;5055581;28;20618;-72
2021/11/20 07:52:25;;;;;;;17.17;12.13;;;8.70;99.90;;;;;;5054858;28;20249;-72
2021/11/20 07:54:53;;;;;;;15.65;12.43;;;8.80;99.90;;;;;;5054652;28;20299;-72
2021/11/20 07:57:20;;;;;;;17.13;12.05;;;8.90;99.90;;;;;;5054796;28;20298;-73
2021/11/20 07:59:47;;;;;;;16.30;12.07;;;9.00;99.90;;;;;;5054742;28;20251;-72
2021/11/20 08:02:14;;;;;;;17.27;11.95;;;9.10;99.90;;;;;;5055394;28;20258;-72
2021/11/20 08:04:41;;;;;;;18.73;12.70;;;9.10;99.90;;;;;;5055123;28;20290;-72
2021/11/20 08:07:09;;;;;;;17.23;11.82;;;9.10;99.90;;;;;;5055503;28;20203;-72
2021/11/20 08:09:37;;;;;;;17.33;11.88;;;9.10;99.90;;;;;;5055526;28;20740;-72
2021/11/20 08:12:06;;;;;;;18.33;13.38;;;9.30;99.90;;;;;;5055270;28;20231;-73
2021/11/20 08:14:33;;;;;;;18.05;13.35;;;9.30;99.90;;;;;;5054984;28;20203;-71
2021/11/20 08:17:01;;;;;;;18.15;12.27;;;9.40;99.90;;;;;;5054644;28;20211;-72
2021/11/20 08:19:28;;;;;;;19.33;14.15;;;9.60;99.90;;;;;;5054529;28;20223;-71
2021/11/20 08:21:55;;;;;;;18.92;13.57;;;9.60;99.90;;;;;;5053908;28;20318;-72
2021/11/20 08:24:23;;;;;;;19.90;12.45;;;9.70;99.90;;;;;;5054301;28;20253;-73
2021/11/20 08:26:50;;;;;;;19.48;13.75;;;9.70;99.90;;;;;;5054808;28;20206;-72
2021/11/20 08:29:20;;;;;;;21.85;14.88;;;9.80;99.90;;;;;;5054035;28;20772;-73
2021/11/20 08:31:48;;;;;;;23.85;14.55;;;9.70;99.90;;;;;;5054569;28;20287;-72
2021/11/20 08:34:17;;;;;;;21.92;15.35;;;9.80;99.90;;;;;;5054131;28;20685;-72
2021/11/20 08:36:45;;;;;;;25.25;15.27;;;9.80;99.90;;;;;;5054078;28;20290;-72
2021/11/20 08:39:14;;;;;;;19.15;13.68;;;9.70;99.90;;;;;;5054017;28;20282;-72
2021/11/20 08:41:41;;;;;;;19.73;13.93;;;9.70;99.90;;;;;;5053751;28;20211;-72
2021/11/20 08:44:08;;;;;;;18.85;13.48;;;9.70;99.90;;;;;;5054333;28;20231;-72
2021/11/20 08:46:37;;;;;;;18.00;13.60;;;9.70;99.90;;;;;;5053874;28;20235;-72
2021/11/20 08:49:05;;;;;;;24.45;15.00;;;9.60;99.90;;;;;;5053685;28;20310;-72
2021/11/20 08:51:34;;;;;;;20.88;13.90;;;9.60;99.90;;;;;;5053633;28;20249;-72
2021/11/20 08:54:01;;;;;;;21.70;14.88;;;9.50;99.90;;;;;;5053907;28;20211;-73
2021/11/20 08:56:29;;;;;;;20.08;14.02;;;9.40;99.90;;;;;;5053838;28;20633;-72
2021/11/20 08:58:56;;;;;;;17.85;13.55;;;9.40;99.90;;;;;;5054027;28;20255;-72
2021/11/20 09:01:26;;;;;;;17.90;12.30;;;9.50;99.90;;;;;;5053857;28;20246;-72
2021/11/20 09:03:58;;;;;;;15.02;10.35;;;9.50;99.90;;;;;;5053880;28;20280;-72
2021/11/20 09:06:30;;;;;;;12.77;9.93;;;9.50;99.90;;;;;;5053615;28;20219;-72
2021/11/20 09:09:01;;;;;;;15.10;10.95;;;9.70;99.90;;;;;;5053735;28;20395;-72
2021/11/20 09:11:31;;;;;;;14.40;10.85;;;9.70;99.90;;;;;;5053847;28;20234;-72
2021/11/20 09:14:02;;;;;;;14.57;10.55;;;9.80;99.90;;;;;;5053653;28;20286;-72
2021/11/20 09:16:29;;;;;;;15.07;10.00;;;9.80;99.90;;;;;;5053248;28;20306;-73
2021/11/20 09:18:58;;;;;;;14.52;10.95;;;9.90;99.90;;;;;;5053747;28;20262;-72
2021/11/20 09:21:26;;;;;;;14.95;11.00;;;9.90;99.90;;;;;;5053784;28;20286;-72
2021/11/20 09:23:53;;;;;;;13.30;10.55;;;10.00;99.90;;;;;;5053566;28;20277;-71
2021/11/20 09:26:21;;;;;;;15.98;10.55;;;10.00;99.90;;;;;;5053307;28;20290;-72
2021/11/20 09:28:49;;;;;;;16.00;11.75;;;10.10;99.90;;;;;;5053392;28;20251;-72
2021/11/20 09:31:17;;;;;;;13.90;10.05;;;10.10;99.90;;;;;;5053725;28;20235;-71
2021/11/20 09:33:44;;;;;;;15.25;11.40;;;10.10;99.90;;;;;;5055987;28;20239;-73
2021/11/20 09:36:12;;;;;;;14.18;9.88;;;10.20;99.90;;;;;;5057359;28;20238;-72
2021/11/20 09:38:41;;;;;;;13.77;9.63;;;10.20;99.90;;;;;;5057546;28;20309;-72
2021/11/20 09:41:13;;;;;;;13.00;9.65;;;10.30;99.90;;;;;;5057711;28;20229;-72
2021/11/20 09:43:42;;;;;;;12.45;10.00;;;10.30;99.90;;;;;;5057379;28;20250;-72
2021/11/20 09:46:15;;;;;;;15.30;9.80;;;10.30;99.90;;;;;;5057247;28;20627;-72
2021/11/20 09:48:44;;;;;;;12.55;8.90;;;10.30;99.90;;;;;;5057448;28;20634;-72
2021/11/20 09:51:22;;;;;;;11.75;9.35;;;10.30;99.90;;;;;;5057040;28;20239;-72
2021/11/20 09:53:49;;;;;;;14.35;9.25;;;10.30;99.90;;;;;;5057120;28;20282;-72
2021/11/20 09:56:21;;;;;;;13.43;9.30;;;10.20;99.90;;;;;;5057038;28;20613;-72
2021/11/20 09:59:06;;;;;;;13.77;9.35;;;10.30;99.90;;;;;;5057178;28;20227;-72
2021/11/20 10:01:44;;;;;;;13.60;8.65;;;10.40;99.90;;;;;;5057227;28;20210;-72
2021/11/20 10:04:18;;;;;;;12.60;9.35;;;10.50;99.90;;;;;;5056908;28;20258;-72
2021/11/20 10:06:49;;;;;;;12.35;10.25;;;10.60;99.90;;;;;;5056768;28;20626;-73
2021/11/20 10:09:28;;;;;;;14.13;10.73;;;10.70;99.90;;;;;;5056716;28;20310;-72
2021/11/20 10:12:01;;;;;;;14.45;10.30;;;10.80;99.90;;;;;;5056905;28;20235;-72
2021/11/20 10:14:38;;;;;;;14.38;10.27;;;10.90;99.90;;;;;;5056686;28;20299;-72
2021/11/20 10:17:28;;;;;;;16.58;11.90;;;10.80;99.90;;;;;;5056491;28;20301;-72
2021/11/20 10:20:28;;;;;;;15.68;11.15;;;10.80;99.90;;;;;;5055753;28;20294;-72
2021/11/20 10:23:02;;;;;;;15.30;11.70;;;10.80;99.90;;;;;;5056628;28;20220;-73
2021/11/20 10:26:07;;;;;;;17.20;12.15;;;10.90;99.90;;;;;;5056415;28;20208;-73
2021/11/20 10:28:51;;;;;;;11.80;9.30;;;10.80;99.90;;;;;;5056481;28;20227;-72
2021/11/20 10:31:21;;;;;;;10.13;7.22;;;10.60;99.90;;;;;;5056461;28;20279;-72
2021/11/20 10:33:51;;;;;;;11.40;7.78;;;10.50;99.90;;;;;;5056878;28;20206;-72
2021/11/20 10:36:31;;;;;;;11.68;8.18;;;10.40;99.90;;;;;;5056534;28;20692;-72
2021/11/20 10:39:05;;;;;;;13.80;9.73;;;10.40;99.90;;;;;;5057049;28;20223;-72
2021/11/20 10:41:37;;;;;;;14.57;10.75;;;10.40;99.90;;;;;;5056353;28;20265;-72
2021/11/20 10:44:18;;;;;;;16.85;10.38;;;10.40;99.90;;;;;;5055960;28;20263;-72
2021/11/20 10:46:54;;;;;;;12.00;8.07;;;10.50;99.90;;;;;;5056137;28;20322;-72
2021/11/20 10:49:48;;;;;;;6.80;5.75;;;10.50;99.90;;;;;;5056331;28;20313;-73
2021/11/20 10:52:27;;;;;;;7.93;5.75;;;10.50;99.90;;;;;;5056304;28;20265;-73
2021/11/20 10:55:13;;;;;;;6.30;5.05;;;10.60;99.90;;;;;;5055729;28;20238;-72
2021/11/20 10:58:23;;;;;;;7.10;5.85;;;10.70;99.90;;;;;;5056058;28;20282;-72
2021/11/20 11:01:21;;;;;;;8.30;5.72;;;10.80;99.90;;;;;;5056021;28;20265;-72
2021/11/20 11:03:58;;;;;;;11.00;6.32;;;10.70;99.90;;;;;;5046695;28;20259;-72
2021/11/20 11:06:54;;;;;;;8.98;6.10;;;10.70;99.90;;;;;;5056270;28;20641;-72
2021/11/20 11:09:45;;;;;;;9.73;6.70;;;10.70;99.90;;;;;;5056751;28;20223;-72
2021/11/20 11:12:25;;;;;;;8.07;6.50;;;10.70;99.90;;;;;;5055916;28;20287;-72
2021/11/20 11:15:15;;;;;;;9.30;6.70;;;10.70;99.90;;;;;;5055841;28;20234;-72
2021/11/20 11:17:58;;;;;;;8.88;6.40;;;10.70;99.90;;;;;;5055498;28;20242;-72
2021/11/20 11:20:32;;;;;;;8.93;6.53;;;10.80;99.90;;;;;;5055556;28;20241;-72
2021/11/20 11:23:06;;;;;;;9.48;6.68;;;10.70;99.90;;;;;;5055774;28;20689;-72
2021/11/20 11:25:45;;;;;;;11.23;7.03;;;10.70;99.90;;;;;;5055552;28;20257;-72
2021/11/20 11:28:28;;;;;;;10.15;7.18;;;10.70;99.90;;;;;;5055490;28;20262;-72
2021/11/20 11:31:09;;;;;;;9.95;7.13;;;10.80;99.90;;;;;;5055834;28;20199;-72
2021/11/20 11:33:40;;;;;;;19.38;15.32;;;10.70;99.90;;;;;;5055411;28;20246;-72
2021/11/20 11:36:25;;;;;;;13.95;10.70;;;10.80;99.90;;;;;;5055150;28;20230;-72
2021/11/20 11:39:20;;;;;;;9.85;7.78;;;10.80;99.90;;;;;;5055325;28;20310;-72
2021/11/20 11:41:54;;;;;;;9.43;6.78;;;10.60;99.90;;;;;;5055416;28;20239;-72
2021/11/20 11:44:32;;;;;;;7.53;6.13;;;10.50;99.90;;;;;;5055454;28;20265;-73
2021/11/20 11:47:04;;;;;;;8.57;7.35;;;10.50;99.90;;;;;;5055144;28;20665;-73
2021/11/20 11:49:55;;;;;;;8.70;7.80;;;10.50;99.90;;;;;;5055119;28;20250;-73
2021/11/20 11:52:46;;;;;;;7.80;6.97;;;10.60;99.90;;;;;;5055405;28;20246;-73
2021/11/20 11:55:52;;;;;;;7.43;6.20;;;10.70;99.90;;;;;;5053585;28;20246;-73
2021/11/20 11:58:39;;;;;;;8.27;6.25;;;10.70;99.90;;;;;;5054587;28;20262;-73
2021/11/20 12:01:10;;;;;;;10.10;7.22;;;10.70;99.90;;;;;;5055126;28;20224;-73
2021/11/20 12:03:40;;;;;;;7.47;6.28;;;10.60;99.90;;;;;;5055211;28;20712;-73
2021/11/20 12:06:19;;;;;;;7.90;6.72;;;10.60;99.90;;;;;;5054709;28;20295;-73
2021/11/20 12:08:49;;;;;;;8.15;6.10;;;10.70;99.90;;;;;;5054798;28;20219;-73
2021/11/20 12:11:32;;;;;;;7.07;6.38;;;10.80;99.90;;;;;;5054899;28;20245;-73
2021/11/20 12:14:11;;;;;;;6.55;5.93;;;10.80;99.90;;;;;;5054794;28;20235;-73
2021/11/20 12:16:57;;;;;;;6.70;5.95;;;10.70;99.90;;;;;;5054464;28;20250;-73
2021/11/20 12:19:30;;;;;;;7.25;6.55;;;10.70;99.90;;;;;;5055222;28;20318;-74
2021/11/20 12:22:04;;;;;;;7.80;7.00;;;10.70;99.90;;;;;;5054395;28;20207;-74
2021/11/20 12:24:40;;;;;;;9.18;7.40;;;10.70;99.90;;;;;;5054141;28;20281;-74
2021/11/20 12:27:22;;;;;;;7.07;6.38;;;10.80;99.90;;;;;;5054130;28;20245;-74
2021/11/20 12:30:03;;;;;;;9.80;8.80;;;11.00;99.90;;;;;;5053998;28;20756;-74
2021/11/20 12:32:53;;;;;;;9.25;7.68;;;10.90;99.90;;;;;;5054187;28;20226;-73
2021/11/20 12:35:32;;;;;;;11.40;8.65;;;10.70;99.90;;;;;;5054446;28;20266;-73
2021/11/20 12:38:19;;;;;;;12.43;9.40;;;10.60;99.90;;;;;;5054062;28;20255;-74
2021/11/20 12:41:11;;;;;;;12.48;8.82;;;10.50;99.90;;;;;;5054193;28;20231;-74
2021/11/20 12:44:04;;;;;;;9.20;7.97;;;10.40;99.90;;;;;;5055416;28;20289;-74
2021/11/20 12:46:45;;;;;;;9.88;7.72;;;10.50;99.90;;;;;;5056056;28;20269;-74
2021/11/20 12:49:26;;;;;;;10.88;8.40;;;10.60;99.90;;;;;;5052484;28;20306;-73
2021/11/20 12:51:59;;;;;;;13.27;9.00;;;10.50;99.90;;;;;;5053244;28;20234;-73
2021/11/20 12:54:48;;;;;;;11.45;8.55;;;10.60;99.90;;;;;;5053300;28;20195;-75
2021/11/20 12:57:20;;;;;;;11.63;9.00;;;10.50;99.90;;;;;;5052530;28;20614;-74
2021/11/20 12:59:49;;;;;;;14.02;9.73;;;10.60;99.90;;;;;;5052661;28;20228;-73